createdAt,value
2017-04-08T00:00:22.255Z,1006.11
2017-04-08T00:01:22.291Z,1006.12
2017-04-08T00:02:22.326Z,1006.09
2017-04-08T00:03:22.362Z,1006.06
2017-04-08T00:04:22.396Z,1006.07
2017-04-08T00:05:22.435Z,1006.1
2017-04-08T00:06:22.471Z,1006.06
2017-04-08T00:07:22.506Z,1006.11
2017-04-08T00:08:22.543Z,1006.06
2017-04-08T00:09:22.578Z,1006.04
2017-04-08T00:10:22.614Z,1006.09
2017-04-08T00:11:22.651Z,1006.1
2017-04-08T00:12:22.689Z,1006.11
2017-04-08T00:13:22.725Z,1006.12
2017-04-08T00:14:22.758Z,1006.06
2017-04-08T00:15:22.795Z,1006.11
2017-04-08T00:16:22.829Z,1006.13
2017-04-08T00:17:22.866Z,1006.13
2017-04-08T00:18:22.904Z,1006.16
2017-04-08T00:19:22.938Z,1006.18
2017-04-08T00:20:22.975Z,1006.15
2017-04-08T00:21:23.010Z,1006.19
2017-04-08T00:22:23.047Z,1006.14
2017-04-08T00:23:23.082Z,1006.13
2017-04-08T00:24:23.118Z,1006.17
2017-04-08T00:25:23.157Z,1006.16
2017-04-08T00:26:23.190Z,1006.16
2017-04-08T00:27:23.226Z,1006.16
2017-04-08T00:28:23.263Z,1006.15
2017-04-08T00:29:23.300Z,1006.19
2017-04-08T00:30:23.336Z,1006.15
2017-04-08T00:31:23.371Z,1006.19
2017-04-08T00:32:23.408Z,1006.21
2017-04-08T00:33:23.444Z,1006.18
2017-04-08T00:34:23.479Z,1006.19
2017-04-08T00:35:23.516Z,1006.18
2017-04-08T00:36:23.553Z,1006.23
2017-04-08T00:37:23.589Z,1006.23
2017-04-08T00:38:23.624Z,1006.17
2017-04-08T00:39:23.661Z,1006.16
2017-04-08T00:40:23.700Z,1006.16
2017-04-08T00:41:23.744Z,1006.2
2017-04-08T00:42:23.769Z,1006.2
2017-04-08T00:43:23.807Z,1006.2
2017-04-08T00:44:23.843Z,1006.19
2017-04-08T00:45:23.878Z,1006.19
2017-04-08T00:46:23.913Z,1006.16
2017-04-08T00:47:23.951Z,1006.18
2017-04-08T00:48:23.986Z,1006.19
2017-04-08T00:49:24.022Z,1006.15
2017-04-08T00:50:24.063Z,1006.18
2017-04-08T00:51:24.096Z,1006.16
2017-04-08T00:52:24.131Z,1006.17
2017-04-08T00:53:24.167Z,1006.16
2017-04-08T00:54:24.204Z,1006.18
2017-04-08T00:55:24.240Z,1006.13
2017-04-08T00:56:24.275Z,1006.18
2017-04-08T00:57:24.312Z,1006.16
2017-04-08T00:58:24.347Z,1006.14
2017-04-08T00:59:24.384Z,1006.2
2017-04-08T01:00:24.419Z,1006.19
2017-04-08T01:01:24.458Z,1006.22
2017-04-08T01:02:24.492Z,1006.23
2017-04-08T01:03:24.527Z,1006.19
2017-04-08T01:04:24.570Z,1006.24
2017-04-08T01:05:24.613Z,1006.24
2017-04-08T01:06:24.686Z,1006.21
2017-04-08T01:07:24.672Z,1006.21
2017-04-08T01:08:24.708Z,1006.25
2017-04-08T01:09:24.745Z,1006.26
2017-04-08T01:10:24.781Z,1006.28
2017-04-08T01:11:24.820Z,1006.28
2017-04-08T01:12:24.856Z,1006.25
2017-04-08T01:13:24.891Z,1006.24
2017-04-08T01:14:24.950Z,1006.25
2017-04-08T01:15:24.963Z,1006.3
2017-04-08T01:16:24.999Z,1006.31
2017-04-08T01:17:25.034Z,1006.27
2017-04-08T01:18:25.072Z,1006.29
2017-04-08T01:19:25.124Z,1006.29
2017-04-08T01:20:25.144Z,1006.27
2017-04-08T01:21:25.179Z,1006.26
2017-04-08T01:22:25.216Z,1006.24
2017-04-08T01:23:25.252Z,1006.26
2017-04-08T01:24:25.287Z,1006.22
2017-04-08T01:25:25.323Z,1006.29
2017-04-08T01:26:25.360Z,1006.26
2017-04-08T01:27:25.396Z,1006.27
2017-04-08T01:28:25.431Z,1006.26
2017-04-08T01:29:25.473Z,1006.32
2017-04-08T01:30:25.505Z,1006.26
2017-04-08T01:31:25.549Z,1006.27
2017-04-08T01:32:25.577Z,1006.29
2017-04-08T01:33:25.644Z,1006.24
2017-04-08T01:34:25.657Z,1006.28
2017-04-08T01:35:25.686Z,1006.25
2017-04-08T01:36:25.722Z,1006.29
2017-04-08T01:37:25.759Z,1006.28
2017-04-08T01:38:25.795Z,1006.25
2017-04-08T01:39:25.832Z,1006.29
2017-04-08T01:40:25.867Z,1006.32
2017-04-08T01:41:25.902Z,1006.35
2017-04-08T01:42:25.940Z,1006.31
2017-04-08T01:43:26.010Z,1006.32
2017-04-08T01:44:26.010Z,1006.35
2017-04-08T01:45:26.048Z,1006.36
2017-04-08T01:46:26.097Z,1006.37
2017-04-08T01:47:26.118Z,1006.38
2017-04-08T01:48:26.155Z,1006.38
2017-04-08T01:49:26.191Z,1006.38
2017-04-08T01:50:26.227Z,1006.42
2017-04-08T01:51:26.263Z,1006.44
2017-04-08T01:52:26.301Z,1006.43
2017-04-08T01:53:26.336Z,1006.49
2017-04-08T01:54:26.372Z,1006.5
2017-04-08T01:55:26.410Z,1006.51
2017-04-08T01:56:26.445Z,1006.53
2017-04-08T01:57:26.481Z,1006.49
2017-04-08T01:58:26.516Z,1006.46
2017-04-08T01:59:26.554Z,1006.48
2017-04-08T02:00:26.589Z,1006.46
2017-04-08T02:01:26.623Z,1006.51
2017-04-08T02:02:26.661Z,1006.47
2017-04-08T02:03:26.697Z,1006.51
2017-04-08T02:04:26.733Z,1006.54
2017-04-08T02:05:26.769Z,1006.53
2017-04-08T02:06:26.806Z,1006.55
2017-04-08T02:07:26.842Z,1006.55
2017-04-08T02:08:26.877Z,1006.55
2017-04-08T02:09:26.913Z,1006.56
2017-04-08T02:10:26.950Z,1006.56
2017-04-08T02:11:26.986Z,1006.58
2017-04-08T02:12:27.021Z,1006.6
2017-04-08T02:13:27.059Z,1006.58
2017-04-08T02:14:27.094Z,1006.58
2017-04-08T02:15:27.130Z,1006.58
2017-04-08T02:16:27.167Z,1006.6
2017-04-08T02:17:27.201Z,1006.57
2017-04-08T02:18:27.239Z,1006.6
2017-04-08T02:19:27.277Z,1006.64
2017-04-08T02:20:27.309Z,1006.62
2017-04-08T02:21:27.345Z,1006.63
2017-04-08T02:22:27.384Z,1006.6
2017-04-08T02:23:27.418Z,1006.67
2017-04-08T02:24:27.456Z,1006.65
2017-04-08T02:25:27.489Z,1006.67
2017-04-08T02:26:27.529Z,1006.67
2017-04-08T02:27:27.562Z,1006.7
2017-04-08T02:28:27.599Z,1006.69
2017-04-08T02:29:27.636Z,1006.69
2017-04-08T02:30:27.670Z,1006.66
2017-04-08T02:31:27.707Z,1006.67
2017-04-08T02:32:27.743Z,1006.59
2017-04-08T02:33:27.778Z,1006.65
2017-04-08T02:34:27.814Z,1006.68
2017-04-08T02:35:27.853Z,1006.67
2017-04-08T02:36:27.885Z,1006.69
2017-04-08T02:37:27.923Z,1006.66
2017-04-08T02:38:27.958Z,1006.68
2017-04-08T02:39:27.994Z,1006.69
2017-04-08T02:40:28.031Z,1006.68
2017-04-08T02:41:28.066Z,1006.71
2017-04-08T02:42:28.101Z,1006.66
2017-04-08T02:43:28.137Z,1006.68
2017-04-08T02:44:28.173Z,1006.75
2017-04-08T02:45:28.209Z,1006.71
2017-04-08T02:46:28.245Z,1006.72
2017-04-08T02:47:28.282Z,1006.74
2017-04-08T02:48:28.317Z,1006.71
2017-04-08T02:49:28.361Z,1006.69
2017-04-08T02:50:28.389Z,1006.75
2017-04-08T02:51:28.427Z,1006.73
2017-04-08T02:52:28.460Z,1006.75
2017-04-08T02:53:28.497Z,1006.71
2017-04-08T02:54:28.533Z,1006.75
2017-04-08T02:55:28.569Z,1006.75
2017-04-08T02:56:28.606Z,1006.76
2017-04-08T02:57:28.641Z,1006.72
2017-04-08T02:58:28.677Z,1006.76
2017-04-08T02:59:28.713Z,1006.77
2017-04-08T03:00:28.746Z,1006.79
2017-04-08T03:01:28.784Z,1006.77
2017-04-08T03:02:28.820Z,1006.77
2017-04-08T03:03:28.855Z,1006.79
2017-04-08T03:04:28.890Z,1006.79
2017-04-08T03:05:28.928Z,1006.77
2017-04-08T03:06:28.968Z,1006.77
2017-04-08T03:07:29.000Z,1006.78
2017-04-08T03:08:29.034Z,1006.83
2017-04-08T03:09:29.072Z,1006.84
2017-04-08T03:10:29.109Z,1006.84
2017-04-08T03:11:29.143Z,1006.87
2017-04-08T03:12:29.179Z,1006.85
2017-04-08T03:13:29.218Z,1006.86
2017-04-08T03:14:29.251Z,1006.92
2017-04-08T03:15:29.287Z,1006.9
2017-04-08T03:16:29.323Z,1006.84
2017-04-08T03:17:29.358Z,1006.91
2017-04-08T03:18:29.395Z,1006.94
2017-04-08T03:19:29.432Z,1006.89
2017-04-08T03:20:29.468Z,1006.92
2017-04-08T03:21:29.512Z,1006.96
2017-04-08T03:22:29.537Z,1006.96
2017-04-08T03:23:29.573Z,1006.96
2017-04-08T03:24:29.611Z,1006.89
2017-04-08T03:25:29.646Z,1006.94
2017-04-08T03:26:29.682Z,1006.92
2017-04-08T03:27:29.719Z,1006.96
2017-04-08T03:28:29.754Z,1006.99
2017-04-08T03:29:29.789Z,1007
2017-04-08T03:30:29.825Z,1007.03
2017-04-08T03:31:29.860Z,1006.95
2017-04-08T03:32:29.897Z,1007.03
2017-04-08T03:33:29.932Z,1007.04
2017-04-08T03:34:29.979Z,1007.01
2017-04-08T03:35:30.005Z,1007
2017-04-08T03:36:30.040Z,1006.99
2017-04-08T03:37:30.076Z,1006.99
2017-04-08T03:38:30.111Z,1006.99
2017-04-08T03:39:30.148Z,1007
2017-04-08T03:40:30.183Z,1007.01
2017-04-08T03:41:30.219Z,1007.02
2017-04-08T03:42:30.255Z,1007.03
2017-04-08T03:43:30.289Z,1007.03
2017-04-08T03:44:30.327Z,1007.01
2017-04-08T03:45:30.362Z,1007.06
2017-04-08T03:46:30.399Z,1007.02
2017-04-08T03:47:30.433Z,1007.05
2017-04-08T03:48:30.468Z,1007.09
2017-04-08T03:49:30.506Z,1007.07
2017-04-08T03:50:30.542Z,1007.08
2017-04-08T03:51:30.577Z,1007.11
2017-04-08T03:52:30.616Z,1007.09
2017-04-08T03:53:30.649Z,1007.11
2017-04-08T03:54:30.684Z,1007.12
2017-04-08T03:55:30.729Z,1007.15
2017-04-08T03:56:30.754Z,1007.15
2017-04-08T03:57:30.794Z,1007.14
2017-04-08T03:58:30.834Z,1007.16
2017-04-08T03:59:30.863Z,1007.21
2017-04-08T04:00:30.898Z,1007.17
2017-04-08T04:01:30.936Z,1007.17
2017-04-08T04:02:30.969Z,1007.18
2017-04-08T04:03:31.007Z,1007.18
2017-04-08T04:04:31.041Z,1007.18
2017-04-08T04:05:31.078Z,1007.2
2017-04-08T04:06:31.133Z,1007.22
2017-04-08T04:07:31.149Z,1007.18
2017-04-08T04:08:31.184Z,1007.15
2017-04-08T04:09:31.220Z,1007.19
2017-04-08T04:10:31.256Z,1007.17
2017-04-08T04:11:31.292Z,1007.21
2017-04-08T04:12:31.329Z,1007.22
2017-04-08T04:13:31.363Z,1007.19
2017-04-08T04:14:31.400Z,1007.18
2017-04-08T04:15:31.435Z,1007.2
2017-04-08T04:16:31.492Z,1007.19
2017-04-08T04:17:31.508Z,1007.23
2017-04-08T04:18:31.541Z,1007.24
2017-04-08T04:19:31.579Z,1007.27
2017-04-08T04:20:31.612Z,1007.27
2017-04-08T04:21:31.653Z,1007.28
2017-04-08T04:22:31.686Z,1007.32
2017-04-08T04:23:31.723Z,1007.4
2017-04-08T04:24:31.757Z,1007.42
2017-04-08T04:25:31.792Z,1007.4
2017-04-08T04:26:31.828Z,1007.44
2017-04-08T04:27:31.867Z,1007.42
2017-04-08T04:28:31.903Z,1007.43
2017-04-08T04:29:31.937Z,1007.43
2017-04-08T04:30:31.971Z,1007.44
2017-04-08T04:31:32.006Z,1007.43
2017-04-08T04:32:32.042Z,1007.47
2017-04-08T04:33:32.101Z,1007.48
2017-04-08T04:34:32.115Z,1007.48
2017-04-08T04:35:32.169Z,1007.51
2017-04-08T04:36:32.185Z,1007.5
2017-04-08T04:37:32.221Z,1007.5
2017-04-08T04:38:32.256Z,1007.55
2017-04-08T04:39:32.293Z,1007.51
2017-04-08T04:40:32.328Z,1007.49
2017-04-08T04:41:32.365Z,1007.46
2017-04-08T04:42:32.399Z,1007.51
2017-04-08T04:43:32.435Z,1007.53
2017-04-08T04:44:32.471Z,1007.54
2017-04-08T04:45:32.507Z,1007.59
2017-04-08T04:46:32.545Z,1007.57
2017-04-08T04:47:32.580Z,1007.6
2017-04-08T04:48:32.617Z,1007.61
2017-04-08T04:49:32.650Z,1007.63
2017-04-08T04:50:32.687Z,1007.6
2017-04-08T04:51:32.722Z,1007.62
2017-04-08T04:52:32.758Z,1007.64
2017-04-08T04:53:32.794Z,1007.61
2017-04-08T04:54:32.829Z,1007.58
2017-04-08T04:55:32.868Z,1007.61
2017-04-08T04:56:32.907Z,1007.61
2017-04-08T04:57:32.935Z,1007.6
2017-04-08T04:58:32.974Z,1007.6
2017-04-08T04:59:33.010Z,1007.64
2017-04-08T05:00:33.044Z,1007.68
2017-04-08T05:01:33.080Z,1007.66
2017-04-08T05:02:33.115Z,1007.6
2017-04-08T05:03:33.151Z,1007.61
2017-04-08T05:04:33.189Z,1007.62
2017-04-08T05:05:33.224Z,1007.59
2017-04-08T05:06:33.258Z,1007.66
2017-04-08T05:07:33.293Z,1007.64
2017-04-08T05:08:33.328Z,1007.65
2017-04-08T05:09:33.366Z,1007.66
2017-04-08T05:10:33.402Z,1007.68
2017-04-08T05:11:33.436Z,1007.63
2017-04-08T05:12:33.473Z,1007.68
2017-04-08T05:13:33.508Z,1007.71
2017-04-08T05:14:33.545Z,1007.75
2017-04-08T05:15:33.580Z,1007.78
2017-04-08T05:16:33.616Z,1007.78
2017-04-08T05:17:33.651Z,1007.8
2017-04-08T05:18:33.686Z,1007.77
2017-04-08T05:19:33.722Z,1007.79
2017-04-08T05:20:33.760Z,1007.83
2017-04-08T05:21:33.796Z,1007.83
2017-04-08T05:22:33.831Z,1007.86
2017-04-08T05:23:33.868Z,1007.91
2017-04-08T05:24:33.901Z,1007.94
2017-04-08T05:25:33.939Z,1007.92
2017-04-08T05:26:33.974Z,1007.93
2017-04-08T05:27:34.010Z,1007.97
2017-04-08T05:28:34.047Z,1007.97
2017-04-08T05:29:34.082Z,1007.94
2017-04-08T05:30:34.117Z,1007.99
2017-04-08T05:31:34.152Z,1008.02
2017-04-08T05:32:34.190Z,1008.05
2017-04-08T05:33:34.225Z,1008.02
2017-04-08T05:34:34.260Z,1008.06
2017-04-08T05:35:34.297Z,1008
2017-04-08T05:36:34.334Z,1008.01
2017-04-08T05:37:34.369Z,1008.09
2017-04-08T05:38:34.404Z,1008.08
2017-04-08T05:39:34.440Z,1008.04
2017-04-08T05:40:34.477Z,1008.06
2017-04-08T05:41:34.511Z,1008.09
2017-04-08T05:42:34.550Z,1008.03
2017-04-08T05:43:34.585Z,1008.11
2017-04-08T05:44:34.619Z,1008.12
2017-04-08T05:45:34.655Z,1008.11
2017-04-08T05:46:34.692Z,1008.13
2017-04-08T05:47:34.731Z,1008.12
2017-04-08T05:48:34.763Z,1008.09
2017-04-08T05:49:34.799Z,1008.08
2017-04-08T05:50:34.836Z,1008.12
2017-04-08T05:51:34.870Z,1008.09
2017-04-08T05:52:34.908Z,1008.1
2017-04-08T05:53:34.944Z,1008.08
2017-04-08T05:54:34.986Z,1008.09
2017-04-08T05:55:35.015Z,1008.1
2017-04-08T05:56:35.050Z,1008.09
2017-04-08T05:57:35.089Z,1008.07
2017-04-08T05:58:35.147Z,1008.13
2017-04-08T05:59:35.160Z,1008.14
2017-04-08T06:00:35.195Z,1008.16
2017-04-08T06:01:35.231Z,1008.18
2017-04-08T06:02:35.267Z,1008.15
2017-04-08T06:03:35.314Z,1008.18
2017-04-08T06:04:35.339Z,1008.22
2017-04-08T06:05:35.378Z,1008.2
2017-04-08T06:06:35.412Z,1008.22
2017-04-08T06:07:35.448Z,1008.2
2017-04-08T06:08:35.487Z,1008.23
2017-04-08T06:09:35.522Z,1008.22
2017-04-08T06:10:35.558Z,1008.24
2017-04-08T06:11:35.593Z,1008.22
2017-04-08T06:12:35.664Z,1008.24
2017-04-08T06:13:35.665Z,1008.24
2017-04-08T06:14:35.702Z,1008.28
2017-04-08T06:15:35.739Z,1008.3
2017-04-08T06:16:35.777Z,1008.27
2017-04-08T06:17:35.810Z,1008.24
2017-04-08T06:18:35.847Z,1008.23
2017-04-08T06:19:35.885Z,1008.24
2017-04-08T06:20:35.921Z,1008.25
2017-04-08T06:21:35.956Z,1008.27
2017-04-08T06:22:35.993Z,1008.31
2017-04-08T06:23:36.031Z,1008.3
2017-04-08T06:24:36.065Z,1008.31
2017-04-08T06:25:36.102Z,1008.32
2017-04-08T06:26:36.138Z,1008.33
2017-04-08T06:27:36.174Z,1008.33
2017-04-08T06:28:36.211Z,1008.32
2017-04-08T06:29:36.247Z,1008.32
2017-04-08T06:30:36.282Z,1008.33
2017-04-08T06:31:36.318Z,1008.35
2017-04-08T06:32:36.355Z,1008.37
2017-04-08T06:33:36.392Z,1008.41
2017-04-08T06:34:36.427Z,1008.39
2017-04-08T06:35:36.464Z,1008.42
2017-04-08T06:36:36.500Z,1008.46
2017-04-08T06:37:36.537Z,1008.45
2017-04-08T06:38:36.574Z,1008.43
2017-04-08T06:39:36.609Z,1008.48
2017-04-08T06:40:36.647Z,1008.51
2017-04-08T06:41:36.684Z,1008.51
2017-04-08T06:42:36.719Z,1008.52
2017-04-08T06:43:36.754Z,1008.56
2017-04-08T06:44:36.791Z,1008.55
2017-04-08T06:45:36.830Z,1008.58
2017-04-08T06:46:36.863Z,1008.58
2017-04-08T06:47:36.932Z,1008.57
2017-04-08T06:48:36.939Z,1008.61
2017-04-08T06:49:36.973Z,1008.57
2017-04-08T06:50:37.009Z,1008.61
2017-04-08T06:51:37.048Z,1008.61
2017-04-08T06:52:37.083Z,1008.58
2017-04-08T06:53:37.121Z,1008.59
2017-04-08T06:54:37.159Z,1008.48
2017-04-08T06:55:37.192Z,1008.51
2017-04-08T06:56:37.236Z,1008.5
2017-04-08T06:57:37.266Z,1008.5
2017-04-08T06:58:37.306Z,1008.5
2017-04-08T06:59:37.339Z,1008.5
2017-04-08T07:00:37.376Z,1008.56
2017-04-08T07:01:37.413Z,1008.52
2017-04-08T07:02:37.450Z,1008.55
2017-04-08T07:03:37.485Z,1008.56
2017-04-08T07:04:37.522Z,1008.55
2017-04-08T07:05:37.558Z,1008.57
2017-04-08T07:06:37.597Z,1008.61
2017-04-08T07:07:37.631Z,1008.65
2017-04-08T07:08:37.672Z,1008.6
2017-04-08T07:09:37.706Z,1008.59
2017-04-08T07:10:37.749Z,1008.61
2017-04-08T07:11:37.780Z,1008.64
2017-04-08T07:12:37.815Z,1008.6
2017-04-08T07:13:37.852Z,1008.62
2017-04-08T07:14:37.890Z,1008.63
2017-04-08T07:15:37.942Z,1008.64
2017-04-08T07:16:37.962Z,1008.62
2017-04-08T07:17:38.000Z,1008.65
2017-04-08T07:18:38.037Z,1008.63
2017-04-08T07:19:38.086Z,1008.62
2017-04-08T07:20:38.109Z,1008.61
2017-04-08T07:21:38.148Z,1008.61
2017-04-08T07:22:38.185Z,1008.68
2017-04-08T07:23:38.221Z,1008.59
2017-04-08T07:24:38.257Z,1008.63
2017-04-08T07:25:38.296Z,1008.63
2017-04-08T07:26:38.332Z,1008.66
2017-04-08T07:27:38.371Z,1008.7
2017-04-08T07:28:38.414Z,1008.71
2017-04-08T07:29:38.444Z,1008.71
2017-04-08T07:30:38.481Z,1008.73
2017-04-08T07:31:38.517Z,1008.72
2017-04-08T07:32:38.554Z,1008.74
2017-04-08T07:33:38.592Z,1008.76
2017-04-08T07:34:38.627Z,1008.76
2017-04-08T07:35:38.670Z,1008.79
2017-04-08T07:36:38.704Z,1008.77
2017-04-08T07:37:38.739Z,1008.8
2017-04-08T07:38:38.777Z,1008.79
2017-04-08T07:39:38.816Z,1008.84
2017-04-08T07:40:38.853Z,1008.79
2017-04-08T07:41:38.889Z,1008.8
2017-04-08T07:42:38.927Z,1008.85
2017-04-08T07:43:38.965Z,1008.84
2017-04-08T07:44:39.000Z,1008.84
2017-04-08T07:45:39.038Z,1008.87
2017-04-08T07:46:39.076Z,1008.91
2017-04-08T07:47:39.114Z,1008.9
2017-04-08T07:48:39.151Z,1008.92
2017-04-08T07:49:39.188Z,1008.9
2017-04-08T07:50:39.224Z,1008.95
2017-04-08T07:51:39.262Z,1008.91
2017-04-08T07:52:39.299Z,1008.91
2017-04-08T07:53:39.337Z,1008.94
2017-04-08T07:54:39.374Z,1008.95
2017-04-08T07:55:39.411Z,1008.95
2017-04-08T07:56:39.451Z,1008.98
2017-04-08T07:57:39.487Z,1008.93
2017-04-08T07:58:39.526Z,1008.98
2017-04-08T07:59:39.562Z,1009.02
2017-04-08T08:00:39.600Z,1008.97
2017-04-08T08:01:39.640Z,1008.99
2017-04-08T08:02:39.676Z,1009.02
2017-04-08T08:03:39.714Z,1009.05
2017-04-08T08:04:39.751Z,1009.08
2017-04-08T08:05:39.790Z,1009.05
2017-04-08T08:06:39.823Z,1009.04
2017-04-08T08:07:39.863Z,1009
2017-04-08T08:08:39.902Z,1009.04
2017-04-08T08:09:39.940Z,1009.05
2017-04-08T08:10:39.975Z,1009.08
2017-04-08T08:11:40.016Z,1009.15
2017-04-08T08:12:40.053Z,1009.15
2017-04-08T08:13:40.090Z,1009.12
2017-04-08T08:14:40.128Z,1009.16
2017-04-08T08:15:40.166Z,1009.14
2017-04-08T08:16:40.203Z,1009.14
2017-04-08T08:17:40.242Z,1009.21
2017-04-08T08:18:40.281Z,1009.17
2017-04-08T08:19:40.319Z,1009.18
2017-04-08T08:20:40.358Z,1009.21
2017-04-08T08:21:40.394Z,1009.23
2017-04-08T08:22:40.433Z,1009.22
2017-04-08T08:23:40.471Z,1009.23
2017-04-08T08:24:40.512Z,1009.24
2017-04-08T08:25:40.548Z,1009.24
2017-04-08T08:26:40.587Z,1009.26
2017-04-08T08:27:40.626Z,1009.24
2017-04-08T08:28:40.665Z,1009.23
2017-04-08T08:29:40.702Z,1009.29
2017-04-08T08:30:40.740Z,1009.3
2017-04-08T08:31:40.780Z,1009.34
2017-04-08T08:32:40.817Z,1009.31
2017-04-08T08:33:40.857Z,1009.33
2017-04-08T08:34:40.895Z,1009.38
2017-04-08T08:35:40.935Z,1009.39
2017-04-08T08:36:40.971Z,1009.38
2017-04-08T08:37:41.011Z,1009.4
2017-04-08T08:38:41.049Z,1009.43
2017-04-08T08:39:41.087Z,1009.4
2017-04-08T08:40:41.125Z,1009.37
2017-04-08T08:41:41.165Z,1009.36
2017-04-08T08:42:41.204Z,1009.33
2017-04-08T08:43:41.247Z,1009.38
2017-04-08T08:44:41.282Z,1009.39
2017-04-08T08:45:41.321Z,1009.32
2017-04-08T08:46:41.359Z,1009.39
2017-04-08T08:47:41.398Z,1009.37
2017-04-08T08:48:41.438Z,1009.38
2017-04-08T08:49:41.475Z,1009.34
2017-04-08T08:50:41.516Z,1009.34
2017-04-08T08:51:41.553Z,1009.41
2017-04-08T08:52:41.593Z,1009.43
2017-04-08T08:53:41.631Z,1009.41
2017-04-08T08:54:41.673Z,1009.41
2017-04-08T08:55:41.711Z,1009.4
2017-04-08T08:56:41.750Z,1009.4
2017-04-08T08:57:41.789Z,1009.42
2017-04-08T08:58:41.828Z,1009.39
2017-04-08T08:59:41.866Z,1009.42
2017-04-08T09:00:41.907Z,1009.41
2017-04-08T09:01:41.946Z,1009.42
2017-04-08T09:02:41.984Z,1009.39
2017-04-08T09:03:42.024Z,1009.4
2017-04-08T09:04:42.064Z,1009.34
2017-04-08T09:05:42.102Z,1009.39
2017-04-08T09:06:42.142Z,1009.39
2017-04-08T09:07:42.181Z,1009.37
2017-04-08T09:08:42.222Z,1009.41
2017-04-08T09:09:42.258Z,1009.42
2017-04-08T09:10:42.299Z,1009.43
2017-04-08T09:11:42.338Z,1009.42
2017-04-08T09:12:42.377Z,1009.5
2017-04-08T09:13:42.417Z,1009.42
2017-04-08T09:14:42.456Z,1009.46
2017-04-08T09:15:42.497Z,1009.5
2017-04-08T09:16:42.535Z,1009.45
2017-04-08T09:17:42.575Z,1009.57
2017-04-08T09:18:42.614Z,1009.47
2017-04-08T09:19:42.654Z,1009.53
2017-04-08T09:20:42.692Z,1009.55
2017-04-08T09:21:42.733Z,1009.64
2017-04-08T09:22:42.772Z,1009.53
2017-04-08T09:23:42.810Z,1009.63
2017-04-08T09:24:42.850Z,1009.59
2017-04-08T09:25:42.891Z,1009.62
2017-04-08T09:26:42.931Z,1009.64
2017-04-08T09:27:42.968Z,1009.59
2017-04-08T09:28:43.007Z,1009.59
2017-04-08T09:29:43.047Z,1009.65
2017-04-08T09:30:43.087Z,1009.6
2017-04-08T09:31:43.128Z,1009.57
2017-04-08T09:32:43.166Z,1009.64
2017-04-08T09:33:43.207Z,1009.59
2017-04-08T09:34:43.245Z,1009.64
2017-04-08T09:35:43.284Z,1009.63
2017-04-08T09:36:43.324Z,1009.63
2017-04-08T09:37:43.364Z,1009.62
2017-04-08T09:38:43.403Z,1009.61
2017-04-08T09:39:43.442Z,1009.64
2017-04-08T09:40:43.483Z,1009.62
2017-04-08T09:41:43.520Z,1009.68
2017-04-08T09:42:43.561Z,1009.64
2017-04-08T09:43:43.600Z,1009.65
2017-04-08T09:44:43.639Z,1009.64
2017-04-08T09:45:43.680Z,1009.63
2017-04-08T09:46:43.722Z,1009.59
2017-04-08T09:47:43.758Z,1009.65
2017-04-08T09:48:43.799Z,1009.62
2017-04-08T09:49:43.838Z,1009.6
2017-04-08T09:50:43.878Z,1009.64
2017-04-08T09:51:43.917Z,1009.62
2017-04-08T09:52:43.958Z,1009.65
2017-04-08T09:53:43.997Z,1009.65
2017-04-08T09:54:44.038Z,1009.64
2017-04-08T09:55:44.079Z,1009.66
2017-04-08T09:56:44.115Z,1009.61
2017-04-08T09:57:44.155Z,1009.59
2017-04-08T09:58:44.196Z,1009.63
2017-04-08T09:59:44.239Z,1009.6
2017-04-08T10:00:44.275Z,1009.66
2017-04-08T10:01:44.315Z,1009.66
2017-04-08T10:02:44.357Z,1009.62
2017-04-08T10:03:44.394Z,1009.68
2017-04-08T10:04:44.436Z,1009.67
2017-04-08T10:05:44.475Z,1009.66
2017-04-08T10:06:44.515Z,1009.68
2017-04-08T10:07:44.554Z,1009.65
2017-04-08T10:08:44.594Z,1009.67
2017-04-08T10:09:44.636Z,1009.68
2017-04-08T10:10:44.679Z,1009.69
2017-04-08T10:11:44.714Z,1009.63
2017-04-08T10:12:44.756Z,1009.65
2017-04-08T10:13:44.795Z,1009.65
2017-04-08T10:14:44.834Z,1009.64
2017-04-08T10:15:44.874Z,1009.62
2017-04-08T10:16:44.915Z,1009.65
2017-04-08T10:17:44.957Z,1009.63
2017-04-08T10:18:44.996Z,1009.59
2017-04-08T10:19:45.038Z,1009.65
2017-04-08T10:20:45.078Z,1009.61
2017-04-08T10:21:45.119Z,1009.65
2017-04-08T10:22:45.159Z,1009.68
2017-04-08T10:23:45.201Z,1009.69
2017-04-08T10:24:45.241Z,1009.66
2017-04-08T10:25:45.282Z,1009.65
2017-04-08T10:26:45.322Z,1009.65
2017-04-08T10:27:45.365Z,1009.64
2017-04-08T10:28:45.405Z,1009.62
2017-04-08T10:29:45.449Z,1009.63
2017-04-08T10:30:45.485Z,1009.65
2017-04-08T10:31:45.527Z,1009.62
2017-04-08T10:32:45.567Z,1009.66
2017-04-08T10:33:45.607Z,1009.63
2017-04-08T10:34:45.653Z,1009.6
2017-04-08T10:35:45.691Z,1009.61
2017-04-08T10:36:45.732Z,1009.6
2017-04-08T10:37:45.772Z,1009.61
2017-04-08T10:38:45.815Z,1009.62
2017-04-08T10:39:45.857Z,1009.59
2017-04-08T10:40:45.897Z,1009.58
2017-04-08T10:41:45.938Z,1009.56
2017-04-08T10:42:45.979Z,1009.54
2017-04-08T10:43:46.022Z,1009.58
2017-04-08T10:44:46.062Z,1009.52
2017-04-08T10:45:46.105Z,1009.55
2017-04-08T10:46:46.145Z,1009.54
2017-04-08T10:47:46.186Z,1009.51
2017-04-08T10:48:46.228Z,1009.52
2017-04-08T10:49:46.270Z,1009.49
2017-04-08T10:50:46.310Z,1009.52
2017-04-08T10:51:46.352Z,1009.51
2017-04-08T10:52:46.394Z,1009.54
2017-04-08T10:53:46.435Z,1009.53
2017-04-08T10:54:46.477Z,1009.52
2017-04-08T10:55:46.518Z,1009.47
2017-04-08T10:56:46.563Z,1009.41
2017-04-08T10:57:46.603Z,1009.46
2017-04-08T10:58:46.644Z,1009.44
2017-04-08T10:59:46.686Z,1009.44
2017-04-08T11:00:46.727Z,1009.42
2017-04-08T11:01:46.771Z,1009.46
2017-04-08T11:02:46.811Z,1009.44
2017-04-08T11:03:46.857Z,1009.41
2017-04-08T11:04:46.895Z,1009.43
2017-04-08T11:05:46.942Z,1009.43
2017-04-08T11:06:46.982Z,1009.42
2017-04-08T11:07:47.026Z,1009.44
2017-04-08T11:08:47.067Z,1009.42
2017-04-08T11:09:47.110Z,1009.4
2017-04-08T11:10:47.151Z,1009.39
2017-04-08T11:11:47.196Z,1009.36
2017-04-08T11:12:47.237Z,1009.34
2017-04-08T11:13:47.279Z,1009.32
2017-04-08T11:14:47.320Z,1009.34
2017-04-08T11:15:47.365Z,1009.3
2017-04-08T11:16:47.404Z,1009.38
2017-04-08T11:17:47.449Z,1009.37
2017-04-08T11:18:47.491Z,1009.4
2017-04-08T11:19:47.532Z,1009.38
2017-04-08T11:20:47.574Z,1009.34
2017-04-08T11:21:47.617Z,1009.38
2017-04-08T11:22:47.659Z,1009.32
2017-04-08T11:23:47.703Z,1009.35
2017-04-08T11:24:47.794Z,1009.33
2017-04-08T11:25:47.787Z,1009.31
2017-04-08T11:26:47.832Z,1009.29
2017-04-08T11:27:47.873Z,1009.3
2017-04-08T11:28:47.916Z,1009.3
2017-04-08T11:29:47.960Z,1009.28
2017-04-08T11:30:48.001Z,1009.31
2017-04-08T11:31:48.044Z,1009.31
2017-04-08T11:32:48.092Z,1009.28
2017-04-08T11:33:48.133Z,1009.32
2017-04-08T11:34:48.172Z,1009.28
2017-04-08T11:35:48.215Z,1009.28
2017-04-08T11:36:48.256Z,1009.24
2017-04-08T11:37:48.300Z,1009.26
2017-04-08T11:38:48.340Z,1009.23
2017-04-08T11:39:48.384Z,1009.22
2017-04-08T11:40:48.425Z,1009.2
2017-04-08T11:41:48.470Z,1009.22
2017-04-08T11:42:48.509Z,1009.2
2017-04-08T11:43:48.553Z,1009.19
2017-04-08T11:44:48.593Z,1009.18
2017-04-08T11:45:48.637Z,1009.14
2017-04-08T11:46:48.679Z,1009.2
2017-04-08T11:47:48.719Z,1009.16
2017-04-08T11:48:48.762Z,1009.13
2017-04-08T11:49:48.804Z,1009.16
2017-04-08T11:50:48.845Z,1009.13
2017-04-08T11:51:48.889Z,1009.17
2017-04-08T11:52:48.938Z,1009.17
2017-04-08T11:53:48.972Z,1009.17
2017-04-08T11:54:49.013Z,1009.15
2017-04-08T11:55:49.055Z,1009.1
2017-04-08T11:56:49.098Z,1009.11
2017-04-08T11:57:49.138Z,1009.13
2017-04-08T11:58:49.180Z,1009.12
2017-04-08T11:59:49.221Z,1009.11
2017-04-08T12:00:49.262Z,1009.09
2017-04-08T12:01:49.303Z,1009.14
2017-04-08T12:02:49.346Z,1009.11
2017-04-08T12:03:49.386Z,1009.1
2017-04-08T12:04:49.428Z,1009.07
2017-04-08T12:05:49.469Z,1009.07
2017-04-08T12:06:49.512Z,1009.02
2017-04-08T12:07:49.554Z,1009.06
2017-04-08T12:08:49.593Z,1009.03